Time;durP1;ratioP1;P1;durP2;ratioP2;P2;SDS_P1;SDS_P2;PMS_P1;PMS_P2;Temp;Humidity;BMP_temperature;BMP_pressure;BME280_temperature;BME280_humidity;BME280_pressure;Samples;Min_cycle;Max_cycle;Signal;HPM_P1;HPM_P2
2021/03/18 00:00:10;;;;;;;5.53;4.18;;;;;;;2.37;67.83;101942.53;687705;28;910;-63
2021/03/18 00:00:39;;;;;;;4.38;3.97;;;;;;;2.38;67.91;101940.72;683073;28;113683;-62
2021/03/18 00:01:01;;;;;;;4.30;3.97;;;;;;;2.36;67.71;101945.28;683094;28;136211;-62
2021/03/18 00:01:22;;;;;;;4.47;4.07;;;;;;;2.34;67.81;101948.06;686115;28;46521;-64
2021/03/18 00:01:45;;;;;;;4.30;3.90;;;;;;;2.33;67.83;101939.16;686925;28;22354;-63
2021/03/18 00:02:06;;;;;;;4.00;3.70;;;;;;;2.31;67.78;101948.25;685396;28;61513;-64
2021/03/18 00:02:27;;;;;;;4.50;4.10;;;;;;;2.32;67.94;101944.59;687139;28;22278;-62
2021/03/18 00:02:48;;;;;;;4.82;4.22;;;;;;;2.25;67.83;101938.78;686924;28;22398;-64
2021/03/18 00:03:11;;;;;;;4.70;4.20;;;;;;;2.30;67.80;101949.19;687267;28;21527;-64
2021/03/18 00:03:36;;;;;;;4.70;3.88;;;;;;;2.29;67.88;101944.81;685349;28;67966;-63
2021/03/18 00:03:57;;;;;;;4.82;4.15;;;;;;;2.29;67.80;101947.47;683955;28;115159;-64
2021/03/18 00:04:19;;;;;;;4.75;4.10;;;;;;;2.27;67.86;101952.03;685941;28;45369;-64
2021/03/18 00:04:40;;;;;;;4.43;3.95;;;;;;;2.27;67.98;101944.03;686675;28;23454;-64
2021/03/18 00:05:02;;;;;;;4.50;3.90;;;;;;;2.28;68.07;101945.75;689041;28;23539;-63
2021/03/18 00:05:24;;;;;;;4.30;3.88;;;;;;;2.26;68.06;101945.00;684944;28;67475;-63
2021/03/18 00:05:45;;;;;;;4.90;4.40;;;;;;;2.26;68.07;101942.34;686267;28;22562;-67
2021/03/18 00:06:07;;;;;;;4.70;4.30;;;;;;;2.26;68.23;101945.84;686086;28;46363;-64
2021/03/18 00:06:28;;;;;;;7.07;4.20;;;;;;;2.26;68.23;101945.84;686456;28;23514;-62
2021/03/18 00:06:49;;;;;;;7.80;4.60;;;;;;;2.24;68.08;101938.88;686563;28;23639;-64
2021/03/18 00:07:11;;;;;;;5.68;4.53;;;;;;;2.26;68.14;101939.66;685695;28;44120;-63
2021/03/18 00:07:33;;;;;;;6.13;4.50;;;;;;;2.25;68.17;101935.28;687698;28;1442;-63
2021/03/18 00:07:54;;;;;;;5.03;4.10;;;;;;;2.26;68.27;101937.84;686803;28;22226;-64
2021/03/18 00:08:15;;;;;;;4.60;4.18;;;;;;;2.26;68.17;101939.66;687152;28;23527;-64
2021/03/18 00:08:37;;;;;;;5.38;4.65;;;;;;;2.25;68.24;101938.78;686111;28;35335;-63
2021/03/18 00:08:59;;;;;;;6.60;4.95;;;;;;;2.23;68.00;101938.03;687812;28;46410;-64
2021/03/18 00:09:21;;;;;;;7.28;4.93;;;;;;;2.24;68.21;101936.22;690031;28;1477;-64
2021/03/18 00:09:42;;;;;;;6.47;4.75;;;;;;;2.22;68.13;101933.66;689050;28;23507;-64
2021/03/18 00:10:06;;;;;;;7.22;4.80;;;;;;;2.23;68.04;101935.38;689684;28;22388;-64
2021/03/18 00:10:28;;;;;;;6.05;4.90;;;;;;;2.23;68.14;101939.84;688452;28;36510;-62
2021/03/18 00:10:50;;;;;;;5.13;4.65;;;;;;;2.23;68.11;101939.84;688049;28;21545;-64
2021/03/18 00:11:13;;;;;;;6.40;4.55;;;;;;;2.22;68.15;101944.31;685769;28;45511;-64
2021/03/18 00:11:37;;;;;;;5.70;4.30;;;;;;;2.21;68.07;101942.63;685315;28;69305;-64
2021/03/18 00:11:58;;;;;;;6.00;4.60;;;;;;;2.20;67.92;101935.56;685312;28;62918;-64
2021/03/18 00:12:19;;;;;;;5.32;4.60;;;;;;;2.20;67.78;101938.22;686880;28;22174;-64
2021/03/18 00:12:40;;;;;;;5.13;4.63;;;;;;;2.17;67.95;101933.94;685732;28;44376;-64
2021/03/18 00:13:02;;;;;;;5.03;4.25;;;;;;;2.17;67.85;101936.59;687034;28;22404;-63
2021/03/18 00:13:26;;;;;;;4.30;3.90;;;;;;;2.17;67.98;101939.25;686062;28;44390;-63
2021/03/18 00:13:47;;;;;;;6.00;4.35;;;;;;;2.15;67.83;101935.00;684125;28;93544;-64
2021/03/18 00:14:10;;;;;;;6.60;4.32;;;;;;;2.15;67.96;101935.84;687983;28;22161;-64
2021/03/18 00:14:31;;;;;;;6.35;4.30;;;;;;;2.15;67.94;101932.31;686056;28;64092;-62
2021/03/18 00:14:52;;;;;;;5.00;4.15;;;;;;;2.12;67.93;101936.03;688071;28;1737;-62
2021/03/18 00:15:15;;;;;;;5.50;4.20;;;;;;;2.11;67.88;101936.13;687700;28;23511;-64
2021/03/18 00:15:36;;;;;;;4.50;4.10;;;;;;;2.08;67.88;101931.81;688134;28;15947;-64
2021/03/18 00:15:58;;;;;;;4.85;4.22;;;;;;;2.10;68.15;101937.06;687044;28;46260;-64
2021/03/18 00:16:19;;;;;;;4.85;4.43;;;;;;;2.09;68.03;101930.88;686580;28;23555;-63
2021/03/18 00:16:41;;;;;;;4.93;4.38;;;;;;;2.10;68.06;101934.38;685716;28;46357;-64
2021/03/18 00:17:02;;;;;;;5.03;4.53;;;;;;;2.08;68.12;101938.97;685451;28;44178;-64
2021/03/18 00:17:24;;;;;;;4.82;4.32;;;;;;;2.09;68.06;101936.19;686807;28;22512;-63
2021/03/18 00:17:45;;;;;;;4.68;4.10;;;;;;;2.10;68.16;101937.94;687453;28;9145;-64
2021/03/18 00:18:06;;;;;;;4.38;3.97;;;;;;;2.11;68.23;101933.44;686771;28;23523;-64
2021/03/18 00:18:30;;;;;;;4.70;4.30;;;;;;;2.11;68.24;101928.13;686157;28;47164;-64
2021/03/18 00:18:53;;;;;;;4.57;4.18;;;;;;;2.14;68.38;101934.09;684477;28;69457;-63
2021/03/18 00:19:14;;;;;;;4.78;4.30;;;;;;;2.15;68.55;101933.16;684160;28;93354;-64
2021/03/18 00:19:35;;;;;;;4.57;4.18;;;;;;;2.19;68.39;101935.66;686592;28;22418;-62
2021/03/18 00:19:56;;;;;;;4.50;4.10;;;;;;;2.19;68.30;101927.66;687603;28;11777;-63
2021/03/18 00:20:19;;;;;;;4.57;4.00;;;;;;;2.20;68.29;101929.38;687006;28;17903;-64
2021/03/18 00:20:40;;;;;;;5.20;4.22;;;;;;;2.20;68.24;101934.72;685090;28;69461;-64
2021/03/18 00:21:02;;;;;;;4.78;4.28;;;;;;;2.22;68.31;101930.13;686712;28;21409;-64
2021/03/18 00:21:23;;;;;;;4.63;4.22;;;;;;;2.23;68.23;101929.19;686678;28;1089;-64
2021/03/18 00:21:45;;;;;;;4.53;4.03;;;;;;;2.19;68.18;101925.84;686923;28;23508;-65
2021/03/18 00:22:06;;;;;;;4.53;3.90;;;;;;;2.22;68.11;101936.31;686752;28;22464;-64
2021/03/18 00:22:27;;;;;;;4.60;4.22;;;;;;;2.23;68.04;101930.03;686168;28;46571;-65
2021/03/18 00:22:48;;;;;;;4.35;3.95;;;;;;;2.23;68.05;101938.03;686832;28;23475;-64
2021/03/18 00:23:10;;;;;;;4.30;3.90;;;;;;;2.22;67.95;101932.81;687446;28;23405;-65
2021/03/18 00:23:31;;;;;;;4.30;3.90;;;;;;;2.16;67.89;101921.56;687559;28;22123;-64
2021/03/18 00:23:53;;;;;;;4.25;3.85;;;;;;;2.17;67.96;101930.41;687257;28;41172;-63
2021/03/18 00:24:14;;;;;;;4.43;4.03;;;;;;;2.18;68.05;101921.47;688599;28;21468;-64
2021/03/18 00:24:35;;;;;;;4.43;4.03;;;;;;;2.21;68.09;101933.75;687425;28;23474;-62
2021/03/18 00:24:56;;;;;;;4.63;4.22;;;;;;;2.22;68.08;101932.81;686976;28;44175;-64
2021/03/18 00:25:18;;;;;;;4.80;4.30;;;;;;;2.20;67.99;101916.91;686606;28;21536;-64
2021/03/18 00:25:39;;;;;;;4.70;4.15;;;;;;;2.19;68.02;101922.31;686608;28;23696;-63
2021/03/18 00:26:05;;;;;;;4.35;3.95;;;;;;;2.21;68.19;101928.41;685844;28;60309;-64
2021/03/18 00:26:28;;;;;;;4.30;3.90;;;;;;;2.20;68.36;101926.72;685654;28;46413;-64
2021/03/18 00:26:49;;;;;;;4.00;3.70;;;;;;;2.17;68.02;101923.25;685241;28;67289;-63
2021/03/18 00:27:12;;;;;;;4.75;4.35;;;;;;;2.16;67.79;101921.56;687253;28;1382;-65
2021/03/18 00:27:33;;;;;;;4.88;4.47;;;;;;;2.16;67.99;101928.69;685249;28;69374;-63
2021/03/18 00:27:54;;;;;;;5.68;4.45;;;;;;;2.15;67.99;101927.84;687119;28;23332;-64
2021/03/18 00:28:16;;;;;;;5.32;4.28;;;;;;;2.15;67.91;101927.00;687820;28;1651;-64
2021/03/18 00:28:37;;;;;;;4.78;4.38;;;;;;;2.13;67.96;101915.53;685950;28;46408;-63
2021/03/18 00:29:00;;;;;;;5.60;4.80;;;;;;;2.13;67.96;101928.88;686529;28;17339;-64
2021/03/18 00:29:21;;;;;;;6.82;4.68;;;;;;;2.12;68.00;101920.03;685712;28;46299;-64
2021/03/18 00:29:42;;;;;;;5.97;4.25;;;;;;;2.12;67.97;101917.38;687040;28;11889;-64
2021/03/18 00:30:05;;;;;;;6.65;4.63;;;;;;;2.13;68.09;101920.88;687327;28;18053;-64
2021/03/18 00:30:26;;;;;;;4.78;4.30;;;;;;;2.12;68.00;101928.03;684516;28;70446;-64
2021/03/18 00:30:47;;;;;;;5.75;4.82;;;;;;;2.10;67.99;101923.72;686731;28;23406;-64
2021/03/18 00:31:09;;;;;;;8.65;6.55;;;;;;;2.09;67.94;101920.22;687084;28;22425;-64
2021/03/18 00:31:34;;;;;;;9.48;7.10;;;;;;;2.08;68.01;101923.81;686048;28;45301;-64
2021/03/18 00:31:55;;;;;;;10.15;6.88;;;;;;;2.09;68.04;101922.03;683437;28;115036;-64
2021/03/18 00:32:16;;;;;;;10.77;7.47;;;;;;;2.07;68.04;101922.13;685961;28;22406;-64
2021/03/18 00:32:38;;;;;;;10.30;7.20;;;;;;;2.06;68.11;101919.56;686392;28;21502;-63
2021/03/18 00:32:59;;;;;;;9.00;6.90;;;;;;;2.05;68.11;101917.81;685843;28;47543;-63
2021/03/18 00:33:21;;;;;;;6.13;5.43;;;;;;;2.02;67.97;101910.84;687196;28;894;-64
2021/03/18 00:33:42;;;;;;;5.43;4.85;;;;;;;2.03;68.05;101912.59;686652;28;17388;-64
2021/03/18 00:34:05;;;;;;;5.07;4.20;;;;;;;2.01;68.05;101905.63;687664;28;22374;-63
2021/03/18 00:34:26;;;;;;;5.57;4.22;;;;;;;2.01;68.05;101910.94;687727;28;69564;-63
2021/03/18 00:34:47;;;;;;;4.60;4.20;;;;;;;2.01;67.90;101913.63;689166;28;23437;-63
2021/03/18 00:35:10;;;;;;;4.45;4.05;;;;;;;2.01;68.00;101918.94;689301;28;23519;-63
2021/03/18 00:35:32;;;;;;;4.97;4.07;;;;;;;1.98;67.96;101912.00;686527;28;68717;-63
2021/03/18 00:35:55;;;;;;;5.05;4.55;;;;;;;1.98;68.09;101914.69;685423;28;44376;-64
2021/03/18 00:36:17;;;;;;;4.97;4.40;;;;;;;1.99;68.00;101919.03;684756;28;69576;-63
2021/03/18 00:36:38;;;;;;;5.50;4.60;;;;;;;1.97;68.01;101915.63;687075;28;14251;-63
2021/03/18 00:36:59;;;;;;;4.93;4.47;;;;;;;1.96;68.05;101913.94;686755;28;4905;-63
2021/03/18 00:37:21;;;;;;;4.75;4.35;;;;;;;1.94;67.99;101916.69;687628;28;1081;-63
2021/03/18 00:37:44;;;;;;;4.25;3.85;;;;;;;1.95;68.20;101917.53;686383;28;31229;-62
2021/03/18 00:38:05;;;;;;;4.60;3.90;;;;;;;1.94;68.04;101922.00;685426;28;63215;-63
2021/03/18 00:38:27;;;;;;;4.47;4.07;;;;;;;1.94;68.03;101919.34;686426;28;23455;-62
2021/03/18 00:38:49;;;;;;;4.30;3.90;;;;;;;1.94;68.22;101913.13;686443;28;19669;-63
2021/03/18 00:39:11;;;;;;;4.20;3.80;;;;;;;1.95;68.20;101912.19;686836;28;29339;-63
2021/03/18 00:39:32;;;;;;;4.40;4.00;;;;;;;1.94;68.05;101918.47;685927;28;41098;-63
2021/03/18 00:39:55;;;;;;;4.60;4.20;;;;;;;1.92;67.95;101915.91;686301;28;23787;-64
2021/03/18 00:40:19;;;;;;;5.35;4.20;;;;;;;1.91;68.01;101914.19;685209;28;65242;-63
2021/03/18 00:40:45;;;;;;;4.95;4.32;;;;;;;1.91;68.15;101910.66;684364;28;84658;-63
2021/03/18 00:41:09;;;;;;;5.50;4.50;;;;;;;1.90;68.08;101916.97;686217;28;42011;-63
2021/03/18 00:41:30;;;;;;;5.07;4.47;;;;;;;1.90;68.09;101911.63;685468;28;55388;-63
2021/03/18 00:41:51;;;;;;;5.20;4.70;;;;;;;1.90;68.16;101904.47;687018;28;21351;-64
2021/03/18 00:42:12;;;;;;;5.35;4.82;;;;;;;1.87;68.07;101910.00;686553;28;24382;-63
2021/03/18 00:42:33;;;;;;;5.55;5.00;;;;;;;1.87;67.96;101903.81;686961;28;21859;-63
2021/03/18 00:42:57;;;;;;;5.95;5.05;;;;;;;1.87;67.93;101914.47;686083;28;45237;-63
2021/03/18 00:43:19;;;;;;;6.25;5.22;;;;;;;1.80;68.07;101906.84;684608;28;69589;-63
2021/03/18 00:43:42;;;;;;;6.82;5.50;;;;;;;1.84;68.37;101904.84;684160;28;69236;-63
2021/03/18 00:44:05;;;;;;;6.47;5.20;;;;;;;1.86;68.28;101907.41;682216;28;61443;-64
2021/03/18 00:44:26;;;;;;;6.63;5.57;;;;;;;1.83;68.06;101905.78;682336;28;69319;-62
2021/03/18 00:44:48;;;;;;;7.78;6.40;;;;;;;1.84;68.04;101906.66;683212;28;22522;-64
2021/03/18 00:45:10;;;;;;;6.90;5.47;;;;;;;1.81;68.18;101905.03;684935;28;21533;-63
2021/03/18 00:45:34;;;;;;;6.32;5.55;;;;;;;1.81;68.23;101905.03;682074;28;69456;-64
2021/03/18 00:45:56;;;;;;;6.95;6.20;;;;;;;1.80;68.14;101906.84;679233;28;115970;-63
2021/03/18 00:46:21;;;;;;;7.15;6.10;;;;;;;1.79;68.11;101907.78;679251;29;69461;-64
2021/03/18 00:46:42;;;;;;;8.27;6.10;;;;;;;1.79;68.22;101907.78;679264;29;68367;-63
2021/03/18 00:47:04;;;;;;;7.82;5.78;;;;;;;1.79;68.26;101909.59;678603;29;11196;-64
2021/03/18 00:47:25;;;;;;;6.35;5.53;;;;;;;1.78;68.27;101903.41;679106;29;47569;-64
2021/03/18 00:47:47;;;;;;;5.75;5.25;;;;;;;1.78;68.33;101899.88;682079;28;23797;-62
2021/03/18 00:48:09;;;;;;;5.13;4.72;;;;;;;1.76;68.25;101905.31;684166;28;23633;-63
2021/03/18 00:48:31;;;;;;;4.72;4.25;;;;;;;1.73;68.46;101900.16;680189;28;59616;-63
2021/03/18 00:48:54;;;;;;;5.20;4.60;;;;;;;1.75;68.35;101900.91;679428;29;69543;-61
2021/03/18 00:49:16;;;;;;;5.68;4.50;;;;;;;1.74;68.29;101903.66;678859;29;20586;-62
2021/03/18 00:49:37;;;;;;;5.13;4.57;;;;;;;1.72;68.24;101901.09;680647;28;45401;-63
2021/03/18 00:49:59;;;;;;;4.75;4.35;;;;;;;1.69;68.29;101906.59;682586;28;46442;-64
2021/03/18 00:50:24;;;;;;;4.78;4.30;;;;;;;1.67;68.34;101897.84;683643;28;21965;-64
2021/03/18 00:50:47;;;;;;;4.68;4.20;;;;;;;1.64;68.29;101891.84;679435;28;136281;-64
2021/03/18 00:51:12;;;;;;;4.47;4.07;;;;;;;1.65;68.41;101904.25;682052;28;115096;-64
2021/03/18 00:51:34;;;;;;;4.43;4.03;;;;;;;1.62;68.41;101900.78;682706;28;67451;-64
2021/03/18 00:51:55;;;;;;;4.50;4.10;;;;;;;1.63;68.49;101896.34;685015;28;42701;-61
2021/03/18 00:52:16;;;;;;;4.60;4.20;;;;;;;1.59;68.49;101895.63;683635;28;8233;-64
2021/03/18 00:52:39;;;;;;;5.60;4.60;;;;;;;1.61;68.64;101903.53;682689;28;1023;-64
2021/03/18 00:53:00;;;;;;;4.85;4.35;;;;;;;1.59;68.66;101902.78;684006;28;18795;-65
2021/03/18 00:53:24;;;;;;;4.97;4.32;;;;;;;1.57;68.57;101897.53;683408;28;46414;-62
2021/03/18 00:53:47;;;;;;;4.60;4.13;;;;;;;1.57;68.68;101897.53;681266;28;88132;-65
2021/03/18 00:54:10;;;;;;;4.60;4.20;;;;;;;1.55;68.79;101904.78;683343;28;85097;-64
2021/03/18 00:54:31;;;;;;;4.57;4.18;;;;;;;1.55;68.71;101903.91;687136;28;13977;-64
2021/03/18 00:54:52;;;;;;;4.32;4.00;;;;;;;1.55;68.86;101898.56;685504;28;40978;-64
2021/03/18 00:55:14;;;;;;;5.63;4.20;;;;;;;1.55;68.67;101906.56;686046;28;22393;-65
2021/03/18 00:55:35;;;;;;;4.47;4.07;;;;;;;1.54;68.78;101902.19;685693;28;28942;-65
2021/03/18 00:55:57;;;;;;;4.57;4.18;;;;;;;1.52;68.67;101901.41;685684;28;23376;-65
2021/03/18 00:56:21;;;;;;;5.20;4.20;;;;;;;1.50;68.73;101898.84;683575;28;12149;-62
2021/03/18 00:56:48;;;;;;;5.10;4.20;;;;;;;1.51;68.55;101900.56;678333;28;149128;-64
2021/03/18 00:57:09;;;;;;;4.70;4.25;;;;;;;1.50;68.75;101901.50;682688;28;45310;-65
2021/03/18 00:57:30;;;;;;;4.43;4.03;;;;;;;1.47;68.73;101896.34;684554;28;1321;-65
2021/03/18 00:57:53;;;;;;;4.13;3.83;;;;;;;1.49;68.69;101902.47;681386;29;19936;-64
2021/03/18 00:58:14;;;;;;;4.55;4.15;;;;;;;1.49;68.66;101897.16;677556;29;54752;-65
2021/03/18 00:58:36;;;;;;;4.72;4.32;;;;;;;1.50;68.63;101898.84;678170;28;21524;-62
2021/03/18 00:58:57;;;;;;;5.30;4.38;;;;;;;1.49;68.62;101890.94;681395;28;21548;-65
2021/03/18 00:59:22;;;;;;;4.30;3.97;;;;;;;1.48;68.53;101897.22;684101;28;15046;-65
2021/03/18 00:59:44;;;;;;;4.55;4.03;;;;;;;1.49;68.55;101902.47;681912;28;92461;-66
2021/03/18 01:00:07;;;;;;;4.57;4.10;;;;;;;1.46;68.51;101896.44;684036;28;13649;-65
2021/03/18 01:00:34;;;;;;;4.90;4.38;;;;;;;1.48;68.57;101898.09;679320;28;93133;-65
2021/03/18 01:00:58;;;;;;;5.20;4.47;;;;;;;1.47;68.50;101900.84;678851;28;138598;-66
2021/03/18 01:01:22;;;;;;;4.90;4.40;;;;;;;1.45;68.48;101898.25;682389;28;67485;-63
2021/03/18 01:01:43;;;;;;;6.18;4.57;;;;;;;1.40;68.49;101893.19;683662;28;92234;-65
2021/03/18 01:02:04;;;;;;;5.03;4.28;;;;;;;1.41;68.48;101889.59;685857;28;22390;-64
2021/03/18 01:02:26;;;;;;;5.45;4.53;;;;;;;1.41;68.35;101902.03;685973;28;22390;-64
2021/03/18 01:02:48;;;;;;;4.95;4.55;;;;;;;1.39;68.94;101899.47;685358;28;44747;-63
2021/03/18 01:03:10;;;;;;;4.60;4.30;;;;;;;1.39;68.49;101899.47;685300;28;43910;-63
2021/03/18 01:03:33;;;;;;;4.47;4.10;;;;;;;1.38;68.60;101896.88;685356;28;46594;-64
2021/03/18 01:03:56;;;;;;;4.47;4.00;;;;;;;1.38;68.72;101902.22;683260;28;115125;-64
2021/03/18 01:04:18;;;;;;;5.10;4.05;;;;;;;1.36;68.76;101893.47;686868;28;20853;-64
2021/03/18 01:04:39;;;;;;;5.47;4.22;;;;;;;1.33;68.68;101894.50;686592;28;32654;-65
2021/03/18 01:05:00;;;;;;;4.53;4.13;;;;;;;1.34;68.76;101904.19;686335;28;21676;-65
2021/03/18 01:05:27;;;;;;;4.50;4.10;;;;;;;1.32;68.69;101895.47;686228;28;22618;-65
2021/03/18 01:05:51;;;;;;;4.55;4.13;;;;;;;1.32;68.88;101895.47;684007;28;137595;-64
2021/03/18 01:06:15;;;;;;;4.63;4.22;;;;;;;1.31;68.81;101899.06;686676;28;92301;-65
2021/03/18 01:06:37;;;;;;;4.97;4.10;;;;;;;1.33;68.87;101894.50;686357;28;92363;-62
2021/03/18 01:06:59;;;;;;;4.68;4.28;;;;;;;1.31;68.75;101895.53;686325;28;93304;-64
2021/03/18 01:07:20;;;;;;;4.75;4.30;;;;;;;1.28;68.80;101896.56;689443;28;22646;-65
2021/03/18 01:07:42;;;;;;;5.25;4.47;;;;;;;1.30;69.01;101894.69;689090;28;22480;-65
2021/03/18 01:08:04;;;;;;;4.75;4.03;;;;;;;1.30;68.96;101897.34;688210;28;46101;-64
2021/03/18 01:08:28;;;;;;;4.30;3.90;;;;;;;1.30;68.92;101889.38;689323;28;24295;-64
2021/03/18 01:08:50;;;;;;;5.22;4.07;;;;;;;1.30;68.98;101894.69;685279;28;90238;-64
2021/03/18 01:09:11;;;;;;;4.93;4.22;;;;;;;1.30;68.86;101899.13;686190;28;46258;-64
2021/03/18 01:09:32;;;;;;;4.72;4.32;;;;;;;1.25;68.96;101889.63;687532;28;1412;-64
2021/03/18 01:09:53;;;;;;;5.22;4.70;;;;;;;1.29;68.75;101898.28;686283;28;22528;-65
2021/03/18 01:10:15;;;;;;;5.18;4.15;;;;;;;1.29;68.88;101895.63;686536;28;23544;-64
2021/03/18 01:10:40;;;;;;;5.00;4.43;;;;;;;1.29;68.80;101894.78;685717;28;46214;-62
2021/03/18 01:11:07;;;;;;;5.20;4.28;;;;;;;1.29;68.83;101889.47;683012;28;109361;-64
2021/03/18 01:11:31;;;;;;;4.53;4.13;;;;;;;1.29;68.78;101897.44;684985;28;61677;-63
2021/03/18 01:11:52;;;;;;;6.43;4.88;;;;;;;1.27;68.76;101894.88;684848;28;64414;-64
2021/03/18 01:12:14;;;;;;;5.22;4.55;;;;;;;1.28;68.73;101896.56;686652;28;22375;-64
2021/03/18 01:12:36;;;;;;;5.00;4.38;;;;;;;1.28;68.81;101904.56;684971;28;47473;-65
2021/03/18 01:12:57;;;;;;;5.13;4.50;;;;;;;1.27;69.02;101892.22;685633;28;42905;-62
2021/03/18 01:13:19;;;;;;;4.60;4.20;;;;;;;1.28;68.93;101899.22;686483;28;22389;-64
2021/03/18 01:13:43;;;;;;;4.65;4.20;;;;;;;1.28;69.07;101890.41;686595;28;46255;-63
2021/03/18 01:14:06;;;;;;;5.68;4.70;;;;;;;1.29;68.93;101897.44;685293;28;65583;-64
2021/03/18 01:14:27;;;;;;;5.15;4.63;;;;;;;1.29;69.04;101898.28;685001;28;69101;-64
2021/03/18 01:14:48;;;;;;;5.13;4.63;;;;;;;1.29;69.10;101894.78;687290;28;907;-64
2021/03/18 01:15:11;;;;;;;5.20;4.68;;;;;;;1.30;68.98;101897.34;687588;28;1351;-64
2021/03/18 01:15:33;;;;;;;4.60;4.20;;;;;;;1.29;68.94;101892.97;684989;28;61030;-65
2021/03/18 01:15:56;;;;;;;5.10;4.60;;;;;;;1.29;68.92;101895.63;685211;28;43779;-65
2021/03/18 01:16:18;;;;;;;5.10;4.60;;;;;;;1.29;68.92;101894.78;685114;28;69443;-65
2021/03/18 01:16:44;;;;;;;5.05;4.55;;;;;;;1.26;68.97;101899.31;685480;28;57067;-64
2021/03/18 01:17:05;;;;;;;5.22;4.65;;;;;;;1.28;68.78;101895.72;682448;28;113571;-65
2021/03/18 01:17:26;;;;;;;5.85;5.00;;;;;;;1.26;68.61;101893.16;686450;28;21588;-64
2021/03/18 01:17:47;;;;;;;5.35;4.68;;;;;;;1.28;68.87;101893.06;686755;28;22287;-62
2021/03/18 01:18:08;;;;;;;5.15;4.65;;;;;;;1.26;68.66;101895.81;687007;28;11404;-65
2021/03/18 01:18:36;;;;;;;5.32;4.80;;;;;;;1.27;69.04;101894.88;685431;28;47266;-65
2021/03/18 01:19:00;;;;;;;5.00;4.50;;;;;;;1.26;68.79;101894.00;682146;28;136332;-64
2021/03/18 01:19:26;;;;;;;5.63;4.75;;;;;;;1.25;68.59;101897.63;682604;28;138814;-64
2021/03/18 01:19:48;;;;;;;5.50;4.90;;;;;;;1.24;68.45;101893.22;685609;28;44212;-63
2021/03/18 01:20:12;;;;;;;5.55;4.93;;;;;;;1.25;68.49;101896.75;687430;28;21526;-66
2021/03/18 01:20:34;;;;;;;5.55;4.63;;;;;;;1.24;68.56;101892.38;684454;28;85305;-61
2021/03/18 01:20:55;;;;;;;5.43;4.85;;;;;;;1.25;68.54;101897.63;685850;28;40029;-65
2021/03/18 01:21:17;;;;;;;5.57;4.93;;;;;;;1.23;68.73;101891.50;686306;28;22046;-64
2021/03/18 01:21:40;;;;;;;5.10;4.53;;;;;;;1.25;68.55;101896.75;684143;28;59796;-63
2021/03/18 01:22:02;;;;;;;5.30;4.38;;;;;;;1.26;68.72;101906.44;684477;28;70192;-64
2021/03/18 01:22:23;;;;;;;5.10;4.60;;;;;;;1.26;68.72;101903.78;686618;28;23588;-62
2021/03/18 01:22:44;;;;;;;5.70;5.13;;;;;;;1.26;68.76;101895.81;682614;28;46367;-62
2021/03/18 01:23:06;;;;;;;5.18;4.68;;;;;;;1.25;68.81;101891.41;683259;28;23431;-64
2021/03/18 01:23:27;;;;;;;8.70;5.10;;;;;;;1.25;68.58;101896.75;684107;28;13824;-63
2021/03/18 01:23:48;;;;;;;8.05;5.35;;;;;;;1.24;68.67;101898.56;685658;28;36147;-63
2021/03/18 01:24:11;;;;;;;5.65;5.00;;;;;;;1.25;68.57;101896.75;686486;28;23428;-64
2021/03/18 01:24:32;;;;;;;6.85;5.13;;;;;;;1.25;68.41;101897.63;686157;28;35033;-63
2021/03/18 01:24:54;;;;;;;6.22;4.97;;;;;;;1.24;68.39;101898.56;686879;28;21852;-63
2021/03/18 01:25:15;;;;;;;5.45;4.88;;;;;;;1.24;68.36;101895.06;684921;28;70367;-63
2021/03/18 01:25:36;;;;;;;5.50;4.90;;;;;;;1.22;68.25;101891.59;686064;28;24412;-63
2021/03/18 01:25:58;;;;;;;5.57;5.03;;;;;;;1.21;68.00;101895.22;688562;28;22447;-63
2021/03/18 01:26:19;;;;;;;7.38;5.72;;;;;;;1.20;68.23;101897.00;688527;28;21529;-63
2021/03/18 01:26:41;;;;;;;6.07;5.47;;;;;;;1.21;68.06;101890.75;689166;28;44391;-63
2021/03/18 01:27:02;;;;;;;6.10;5.50;;;;;;;1.21;68.06;101900.53;688407;28;44387;-63
2021/03/18 01:27:23;;;;;;;6.45;5.15;;;;;;;1.21;68.04;101892.56;689345;28;24152;-63
2021/03/18 01:27:45;;;;;;;5.60;5.10;;;;;;;1.20;68.16;101893.50;688797;28;21753;-63
2021/03/18 01:28:09;;;;;;;6.50;5.15;;;;;;;1.21;68.16;101898.72;686927;28;24423;-62
2021/03/18 01:28:31;;;;;;;5.68;5.13;;;;;;;1.19;68.08;101899.75;683860;28;105986;-63
2021/03/18 01:28:52;;;;;;;5.90;5.20;;;;;;;1.20;68.02;101897.00;687188;28;14684;-62
2021/03/18 01:29:14;;;;;;;5.97;5.20;;;;;;;1.20;68.06;101898.81;686865;28;22696;-63
2021/03/18 01:29:35;;;;;;;6.40;5.10;;;;;;;1.20;68.00;101890.84;687182;28;6880;-64
2021/03/18 01:29:56;;;;;;;7.18;5.28;;;;;;;1.21;68.18;101892.56;685204;28;46120;-63
2021/03/18 01:30:21;;;;;;;6.43;5.60;;;;;;;1.18;68.10;101890.06;686732;28;21546;-63
2021/03/18 01:30:42;;;;;;;6.28;5.65;;;;;;;1.21;68.19;101892.56;684125;28;87527;-62
2021/03/18 01:31:05;;;;;;;6.90;5.43;;;;;;;1.20;68.04;101889.03;686646;28;33308;-63
2021/03/18 01:31:27;;;;;;;5.50;5.00;;;;;;;1.20;68.23;101896.16;685355;28;66750;-62
2021/03/18 01:31:48;;;;;;;6.57;5.05;;;;;;;1.22;68.21;101896.91;686238;28;26597;-62
2021/03/18 01:32:09;;;;;;;6.13;4.97;;;;;;;1.18;68.22;101885.59;686493;28;21892;-61
2021/03/18 01:32:30;;;;;;;6.55;5.10;;;;;;;1.20;68.42;101893.50;686654;28;23587;-63
2021/03/18 01:32:51;;;;;;;7.13;5.55;;;;;;;1.21;68.46;101895.22;686633;28;21525;-63
2021/03/18 01:33:12;;;;;;;6.85;5.55;;;;;;;1.22;68.60;101894.25;686138;28;23310;-62
2021/03/18 01:33:34;;;;;;;5.50;5.00;;;;;;;1.22;68.65;101894.25;686077;28;22398;-63
2021/03/18 01:33:55;;;;;;;6.80;5.20;;;;;;;1.23;68.56;101890.66;685765;28;46307;-64
2021/03/18 01:34:17;;;;;;;7.05;5.32;;;;;;;1.24;68.69;101895.06;687648;28;870;-63
2021/03/18 01:34:39;;;;;;;5.80;5.30;;;;;;;1.24;68.69;101887.91;687631;28;911;-63
2021/03/18 01:35:00;;;;;;;6.00;5.18;;;;;;;1.23;68.77;101896.84;685734;28;46280;-62
2021/03/18 01:35:22;;;;;;;5.95;5.15;;;;;;;1.24;68.82;101895.91;686466;28;17073;-64
2021/03/18 01:35:43;;;;;;;6.07;5.05;;;;;;;1.25;68.86;101889.63;685380;28;45360;-64
2021/03/18 01:36:11;;;;;;;5.88;5.10;;;;;;;1.22;68.86;101889.81;686708;28;11658;-64
2021/03/18 01:36:34;;;;;;;5.85;5.03;;;;;;;1.20;68.84;101885.50;683581;28;111437;-62
2021/03/18 01:36:56;;;;;;;6.45;5.25;;;;;;;1.21;68.78;101892.56;684355;28;70643;-62
2021/03/18 01:37:17;;;;;;;6.63;5.25;;;;;;;1.21;68.93;101892.56;685799;28;46130;-62
2021/03/18 01:37:38;;;;;;;6.15;5.28;;;;;;;1.22;68.80;101891.59;686510;28;20699;-63
2021/03/18 01:38:00;;;;;;;5.50;4.95;;;;;;;1.24;68.85;101897.72;686526;28;22412;-63
2021/03/18 01:38:21;;;;;;;6.68;5.20;;;;;;;1.23;68.79;101893.31;685876;28;46399;-62
2021/03/18 01:38:43;;;;;;;5.80;5.00;;;;;;;1.24;69.14;101892.38;685998;28;18983;-62
2021/03/18 01:39:06;;;;;;;6.10;5.25;;;;;;;1.22;68.99;101884.50;685837;28;47186;-63
2021/03/18 01:39:28;;;;;;;5.85;5.25;;;;;;;1.24;69.07;101889.72;684476;28;69557;-62
2021/03/18 01:39:49;;;;;;;6.00;5.40;;;;;;;1.23;68.97;101891.50;686525;28;45282;-63
2021/03/18 01:40:12;;;;;;;6.03;5.40;;;;;;;1.23;69.04;101893.31;687178;28;10170;-63
2021/03/18 01:40:34;;;;;;;5.93;5.32;;;;;;;1.23;68.95;101893.31;684911;28;67271;-63
2021/03/18 01:40:56;;;;;;;5.72;5.13;;;;;;;1.22;68.81;101894.25;685780;28;47713;-63
2021/03/18 01:41:19;;;;;;;7.07;5.65;;;;;;;1.23;68.92;101893.31;685995;28;45255;-63
2021/03/18 01:41:40;;;;;;;5.75;5.20;;;;;;;1.24;68.98;101889.72;684989;28;59249;-63
2021/03/18 01:42:01;;;;;;;5.68;5.15;;;;;;;1.24;68.94;101903.88;686514;28;21450;-64
2021/03/18 01:42:23;;;;;;;5.93;5.25;;;;;;;1.23;69.05;101891.50;686618;28;22320;-63
2021/03/18 01:42:44;;;;;;;7.95;5.28;;;;;;;1.25;68.96;101899.41;686067;28;46390;-63
2021/03/18 01:43:06;;;;;;;14.43;8.65;;;;;;;1.25;68.98;101892.31;686853;28;23432;-63
2021/03/18 01:43:27;;;;;;;19.23;11.18;;;;;;;1.25;68.97;101894.97;685361;28;46576;-63
2021/03/18 01:43:49;;;;;;;16.00;9.80;;;;;;;1.24;68.91;101895.91;686487;28;23373;-64
2021/03/18 01:44:10;;;;;;;14.50;9.35;;;;;;;1.24;68.85;101895.06;687361;28;1094;-64
2021/03/18 01:44:31;;;;;;;12.38;8.45;;;;;;;1.25;68.86;101894.97;686851;28;23316;-63
2021/03/18 01:44:53;;;;;;;9.13;7.05;;;;;;;1.23;68.99;101894.16;686133;28;35874;-62
2021/03/18 01:45:14;;;;;;;6.88;6.10;;;;;;;1.24;68.75;101890.56;686925;28;17108;-64